Greasy Creek, Kentucky
Current Conditions -  °F | °C
As of 11:15 AM on Thursday 30 Oct 2014 (Local Time) from KPBX Reporting Station
Overcast Overcast  
Wind Chill: 42°   Ceiling: 3600
Heat Index: 44°   Visibility: 10mi
Dew Point: 35°   Wind: 5mph
Humidity: 70%   Direction: 10°N
Pressure: 30.14"   Gusts: NA
Location:  37.3722°N, 82.4513°W
Report Text: KPBX 301515Z AUTO 01004KT 10SM OVC036 07/02 A3014 RMK AO2 T00690017
Loading
Personal Weather Stations






























Interactive Weather Map
Tropical Storm Tracking
New forecast layout! Learn more

10-Day Weather Forecast

Advertisements
Track Severe Weather on mobile